createdAt,value
2023-03-30T00:01:18.080Z,41.60
2023-03-30T00:03:47.115Z,41.70
2023-03-30T00:06:21.792Z,42.30
2023-03-30T00:08:53.461Z,41.70
2023-03-30T00:11:23.251Z,41.70
2023-03-30T00:13:50.818Z,41.70
2023-03-30T00:16:18.469Z,41.70
2023-03-30T00:18:45.588Z,41.70
2023-03-30T00:21:12.467Z,41.70
2023-03-30T00:23:40.430Z,41.70
2023-03-30T00:26:07.882Z,41.80
2023-03-30T00:28:35.035Z,41.80
2023-03-30T00:31:02.421Z,41.90
2023-03-30T00:33:44.098Z,42.00
2023-03-30T00:36:13.896Z,41.90
2023-03-30T00:38:41.136Z,41.90
2023-03-30T00:41:09.253Z,41.80
2023-03-30T00:43:54.654Z,41.70
2023-03-30T00:46:23.380Z,41.80
2023-03-30T00:48:51.101Z,41.90
2023-03-30T00:51:19.008Z,42.10
2023-03-30T00:53:50.355Z,42.50
2023-03-30T00:56:23.083Z,44.40
2023-03-30T00:58:50.748Z,46.30
2023-03-30T01:01:28.599Z,48.10
2023-03-30T01:04:02.311Z,50.10
2023-03-30T01:06:31.670Z,51.00
2023-03-30T01:08:59.117Z,52.80
2023-03-30T01:11:27.174Z,56.80
2023-03-30T01:14:01.338Z,59.00
2023-03-30T01:16:44.346Z,60.70
2023-03-30T01:19:32.847Z,61.40
2023-03-30T01:22:22.975Z,61.80
2023-03-30T01:25:10.953Z,62.20
2023-03-30T01:28:19.717Z,62.50
2023-03-30T01:31:02.187Z,64.40
2023-03-30T01:33:52.216Z,63.70
2023-03-30T01:36:31.250Z,65.60
2023-03-30T01:39:16.746Z,66.10
2023-03-30T01:42:03.757Z,67.30
2023-03-30T01:44:34.459Z,67.60
2023-03-30T01:47:24.390Z,68.60
2023-03-30T01:50:28.396Z,68.60
2023-03-30T01:53:18.325Z,69.00
2023-03-30T01:56:00.591Z,69.80
2023-03-30T01:58:51.829Z,69.60
2023-03-30T02:01:20.841Z,69.30
2023-03-30T02:03:54.759Z,68.90
2023-03-30T02:06:56.971Z,66.90
2023-03-30T02:09:27.586Z,64.60
2023-03-30T02:11:55.595Z,63.10
2023-03-30T02:14:30.639Z,61.50
2023-03-30T02:17:07.446Z,60.20
2023-03-30T02:19:34.664Z,59.00
2023-03-30T02:22:01.944Z,58.20
2023-03-30T02:24:32.404Z,57.40
2023-03-30T02:27:04.112Z,56.90
2023-03-30T02:29:33.877Z,56.30
2023-03-30T02:32:01.609Z,55.60
2023-03-30T02:34:49.331Z,54.90
2023-03-30T02:37:47.257Z,54.60
2023-03-30T02:40:33.527Z,54.30
2023-03-30T02:43:19.183Z,54.00
2023-03-30T02:45:55.134Z,53.70
2023-03-30T02:48:49.091Z,53.30
2023-03-30T02:51:26.042Z,53.10
2023-03-30T02:54:49.535Z,52.70
2023-03-30T02:57:27.438Z,52.10
2023-03-30T03:00:13.205Z,51.80
2023-03-30T03:02:45.000Z,51.20
2023-03-30T03:05:26.313Z,50.80
2023-03-30T03:08:15.657Z,50.70
2023-03-30T03:10:44.404Z,50.30
2023-03-30T03:13:15.238Z,50.00
2023-03-30T03:15:45.674Z,50.00
2023-03-30T03:18:13.555Z,49.70
2023-03-30T03:20:42.024Z,49.00
2023-03-30T03:23:09.389Z,48.40
2023-03-30T03:25:44.223Z,47.80
2023-03-30T03:28:13.163Z,47.40
2023-03-30T03:30:43.560Z,47.20
2023-03-30T03:33:17.043Z,46.90
2023-03-30T03:35:54.287Z,46.80
2023-03-30T03:38:22.821Z,46.50
2023-03-30T03:40:52.002Z,46.40
2023-03-30T03:43:19.944Z,46.40
2023-03-30T03:45:48.029Z,46.60
2023-03-30T03:48:16.518Z,45.80
2023-03-30T03:50:56.615Z,45.40
2023-03-30T03:53:26.436Z,45.50
2023-03-30T03:55:57.501Z,45.60
2023-03-30T03:58:25.436Z,45.50
2023-03-30T04:00:57.718Z,45.40
2023-03-30T04:03:24.668Z,45.40
2023-03-30T04:05:51.689Z,45.40
2023-03-30T04:08:19.155Z,45.50
2023-03-30T04:10:46.656Z,45.60
2023-03-30T04:13:25.850Z,45.80
2023-03-30T04:16:18.698Z,46.00
2023-03-30T04:19:00.155Z,45.90
2023-03-30T04:21:30.008Z,45.90
2023-03-30T04:24:29.892Z,45.80
2023-03-30T04:27:25.855Z,45.70
2023-03-30T04:29:58.754Z,45.90
2023-03-30T04:32:39.050Z,45.70
2023-03-30T04:35:34.563Z,45.60
2023-03-30T04:38:12.337Z,45.70
2023-03-30T04:41:15.053Z,45.70
2023-03-30T04:43:44.730Z,45.90
2023-03-30T04:46:31.588Z,45.80
2023-03-30T04:49:30.598Z,45.70
2023-03-30T04:52:21.289Z,45.80
2023-03-30T04:55:00.136Z,45.60
2023-03-30T04:57:53.058Z,45.70
2023-03-30T05:00:46.627Z,45.70
2023-03-30T05:03:42.794Z,46.00
2023-03-30T05:06:27.908Z,46.00
2023-03-30T05:09:13.764Z,46.40
2023-03-30T05:12:04.666Z,46.70
2023-03-30T05:14:47.655Z,47.10
2023-03-30T05:17:34.280Z,47.60
2023-03-30T05:20:24.013Z,48.10
2023-03-30T05:23:09.902Z,48.60
2023-03-30T05:26:07.433Z,49.30
2023-03-30T05:33:01.966Z,50.70
2023-03-30T05:35:45.565Z,51.60
2023-03-30T05:38:22.639Z,52.20
2023-03-30T05:41:16.477Z,52.50
2023-03-30T05:44:08.050Z,52.30
2023-03-30T05:46:55.142Z,51.80
2023-03-30T05:49:40.842Z,51.30
2023-03-30T05:52:21.214Z,51.00
2023-03-30T05:55:10.899Z,50.70
2023-03-30T05:58:10.128Z,50.50
2023-03-30T06:01:00.357Z,50.20
2023-03-30T06:03:37.486Z,50.00
2023-03-30T06:06:06.996Z,49.80
2023-03-30T06:08:36.910Z,49.80
2023-03-30T06:11:07.553Z,49.80
2023-03-30T06:13:47.682Z,49.70
2023-03-30T06:16:19.440Z,49.70
2023-03-30T06:18:50.574Z,49.60
2023-03-30T06:21:19.584Z,49.60
2023-03-30T06:24:13.652Z,49.80
2023-03-30T06:26:41.258Z,49.70
2023-03-30T06:29:12.510Z,49.80
2023-03-30T06:31:51.415Z,49.80
2023-03-30T06:34:53.640Z,49.80
2023-03-30T06:37:23.242Z,49.70
2023-03-30T06:39:51.576Z,49.50
2023-03-30T06:42:19.971Z,49.40
2023-03-30T06:45:14.366Z,49.30
2023-03-30T06:47:42.480Z,48.90
2023-03-30T06:50:10.285Z,48.70
2023-03-30T06:53:00.469Z,48.60
2023-03-30T06:55:34.063Z,48.60
2023-03-30T06:58:01.733Z,48.60
2023-03-30T07:00:30.022Z,48.80
2023-03-30T07:03:20.976Z,48.90
2023-03-30T07:05:58.711Z,49.10
2023-03-30T07:08:35.917Z,49.20
2023-03-30T07:11:05.284Z,49.30
2023-03-30T07:13:34.532Z,49.50
2023-03-30T07:16:02.366Z,49.80
2023-03-30T07:18:31.850Z,50.00
2023-03-30T07:20:59.586Z,50.20
2023-03-30T07:23:32.685Z,50.60
2023-03-30T07:25:59.973Z,51.50
2023-03-30T07:28:38.656Z,51.90
2023-03-30T07:31:13.277Z,52.10
2023-03-30T07:33:42.030Z,52.10
2023-03-30T07:36:15.126Z,52.10
2023-03-30T07:38:42.427Z,52.20
2023-03-30T07:41:13.296Z,52.50
2023-03-30T07:43:41.148Z,52.70
2023-03-30T07:46:09.897Z,52.80
2023-03-30T07:48:40.700Z,53.10
2023-03-30T07:51:13.673Z,53.20
2023-03-30T07:53:52.286Z,53.30
2023-03-30T07:56:29.490Z,53.40
2023-03-30T07:59:01.618Z,53.50
2023-03-30T08:01:34.159Z,53.70
2023-03-30T08:04:19.417Z,53.90
2023-03-30T08:06:47.573Z,54.20
2023-03-30T08:09:15.927Z,54.50
2023-03-30T08:11:46.976Z,56.70
2023-03-30T08:14:14.152Z,62.00
2023-03-30T08:16:41.774Z,66.20
2023-03-30T08:19:09.158Z,69.30
2023-03-30T08:21:36.517Z,70.70
2023-03-30T08:24:03.607Z,72.60
2023-03-30T08:26:31.019Z,73.80
2023-03-30T08:28:58.216Z,74.80
2023-03-30T08:31:25.306Z,75.80
2023-03-30T08:33:52.308Z,76.40
2023-03-30T08:36:20.989Z,76.70
2023-03-30T08:38:48.191Z,78.10
2023-03-30T08:41:47.574Z,79.90
2023-03-30T08:44:31.449Z,81.00
2023-03-30T08:47:01.021Z,82.00
2023-03-30T08:49:30.304Z,83.30
2023-03-30T08:52:05.417Z,84.10
2023-03-30T08:54:34.176Z,84.70
2023-03-30T08:57:20.814Z,86.20
2023-03-30T09:00:04.465Z,87.20
2023-03-30T09:02:43.015Z,88.00
2023-03-30T09:05:10.809Z,87.90
2023-03-30T09:07:45.204Z,88.30
2023-03-30T09:10:15.144Z,88.60
2023-03-30T09:12:48.618Z,89.40
2023-03-30T09:15:32.047Z,88.90
2023-03-30T09:18:00.845Z,89.90
2023-03-30T09:20:33.818Z,90.00
2023-03-30T09:23:02.365Z,90.20
2023-03-30T09:25:46.027Z,90.50
2023-03-30T09:28:42.344Z,90.80
2023-03-30T09:31:27.975Z,90.70
2023-03-30T09:34:01.053Z,90.80
2023-03-30T09:36:56.038Z,90.90
2023-03-30T09:39:27.193Z,91.00
2023-03-30T09:42:16.400Z,91.30
2023-03-30T09:44:53.151Z,91.40
2023-03-30T09:47:24.961Z,91.60
2023-03-30T09:50:04.776Z,92.00
2023-03-30T09:52:37.379Z,91.70
2023-03-30T09:55:22.850Z,91.60
2023-03-30T09:57:53.562Z,91.80
2023-03-30T10:00:27.939Z,92.00
2023-03-30T10:03:05.745Z,91.90
2023-03-30T10:05:36.563Z,91.70
2023-03-30T10:08:07.235Z,91.70
2023-03-30T10:10:41.233Z,91.70
2023-03-30T10:13:15.763Z,91.70
2023-03-30T10:15:46.234Z,91.50
2023-03-30T10:18:32.809Z,91.70
2023-03-30T10:21:15.659Z,91.40
2023-03-30T10:23:45.772Z,90.90
2023-03-30T10:26:19.244Z,91.10
2023-03-30T10:28:57.470Z,91.30
2023-03-30T10:31:28.281Z,90.90
2023-03-30T10:33:58.066Z,91.00
2023-03-30T10:36:34.334Z,90.80
2023-03-30T10:39:15.089Z,90.90
2023-03-30T10:41:43.661Z,90.60
2023-03-30T10:44:20.563Z,90.60
2023-03-30T10:46:51.163Z,90.60
2023-03-30T10:49:39.884Z,90.30
2023-03-30T10:52:16.190Z,89.90
2023-03-30T10:54:50.237Z,89.40
2023-03-30T10:57:21.843Z,88.90
2023-03-30T11:00:21.172Z,88.50
2023-03-30T11:03:08.163Z,86.80
2023-03-30T11:05:43.825Z,87.00
2023-03-30T11:08:14.246Z,88.00
2023-03-30T11:10:46.206Z,88.80
2023-03-30T11:13:41.926Z,88.90
2023-03-30T11:16:34.205Z,89.30
2023-03-30T11:19:12.919Z,89.40
2023-03-30T11:21:58.170Z,88.80
2023-03-30T11:24:27.784Z,89.10
2023-03-30T11:27:11.641Z,90.20
2023-03-30T11:29:57.196Z,90.80
2023-03-30T11:32:31.143Z,91.00
2023-03-30T11:35:05.444Z,91.40
2023-03-30T11:37:41.495Z,92.00
2023-03-30T11:40:50.126Z,92.10
2023-03-30T11:43:19.543Z,92.30
2023-03-30T11:46:31.802Z,92.10
2023-03-30T11:49:21.942Z,92.00
2023-03-30T11:52:18.191Z,91.90
2023-03-30T11:55:06.277Z,91.90
2023-03-30T11:58:12.180Z,92.00
2023-03-30T12:01:06.355Z,92.10
2023-03-30T12:03:43.311Z,92.20
2023-03-30T12:06:24.061Z,91.70
2023-03-30T12:09:05.327Z,91.70
2023-03-30T12:11:36.657Z,90.30
2023-03-30T12:14:07.744Z,85.60
2023-03-30T12:16:47.347Z,80.70
2023-03-30T12:19:22.338Z,76.70
2023-03-30T12:22:09.590Z,74.70
2023-03-30T12:24:59.859Z,73.50
2023-03-30T12:27:29.232Z,72.20
2023-03-30T12:30:23.264Z,71.10
2023-03-30T12:33:14.759Z,71.00
2023-03-30T12:35:48.332Z,71.50
2023-03-30T12:38:25.707Z,72.40
2023-03-30T12:41:14.588Z,74.20
2023-03-30T12:43:49.958Z,75.20
2023-03-30T12:46:38.275Z,75.70
2023-03-30T12:49:21.943Z,76.00
2023-03-30T12:52:21.900Z,75.70
2023-03-30T12:55:15.689Z,75.20
2023-03-30T12:58:01.549Z,72.30
2023-03-30T13:00:45.998Z,71.00
2023-03-30T13:03:37.095Z,67.20
2023-03-30T13:06:21.137Z,64.00
2023-03-30T13:08:53.497Z,62.50
2023-03-30T13:11:22.918Z,61.70
2023-03-30T13:13:59.972Z,61.20
2023-03-30T13:16:45.977Z,60.50
2023-03-30T13:19:31.905Z,59.20
2023-03-30T13:22:12.187Z,57.00
2023-03-30T13:24:42.283Z,56.20
2023-03-30T13:27:18.158Z,55.40
2023-03-30T13:34:44.972Z,55.30
2023-03-30T13:37:55.659Z,54.70
2023-03-30T13:40:41.508Z,55.20
2023-03-30T13:43:34.065Z,55.40
2023-03-30T13:46:43.213Z,55.20
2023-03-30T13:49:46.033Z,53.30
2023-03-30T13:52:21.107Z,53.20
2023-03-30T13:54:49.149Z,53.30
2023-03-30T13:57:34.413Z,53.80
2023-03-30T14:00:21.548Z,53.30
2023-03-30T14:02:49.496Z,53.50
2023-03-30T14:05:24.544Z,53.10
2023-03-30T14:07:55.799Z,53.50
2023-03-30T14:10:22.995Z,53.50
2023-03-30T14:12:55.311Z,53.40
2023-03-30T14:15:24.012Z,53.80
2023-03-30T14:17:57.229Z,53.70
2023-03-30T14:24:38.800Z,53.20
2023-03-30T14:31:56.732Z,53.90
2023-03-30T14:40:59.383Z,53.70
2023-03-30T14:47:19.576Z,57.30
2023-03-30T14:49:47.635Z,59.80
2023-03-30T14:52:18.802Z,61.30
2023-03-30T14:55:01.900Z,62.40
2023-03-30T14:57:36.748Z,63.00
2023-03-30T15:00:18.383Z,63.20
2023-03-30T15:02:47.004Z,63.20
2023-03-30T15:05:17.847Z,63.60
2023-03-30T15:07:50.023Z,63.50
2023-03-30T15:10:44.230Z,63.00
2023-03-30T15:13:20.013Z,62.60
2023-03-30T15:15:47.256Z,62.50
2023-03-30T15:18:20.926Z,62.80
2023-03-30T15:20:48.633Z,59.70
2023-03-30T15:23:16.492Z,57.60
2023-03-30T15:25:44.742Z,56.50
2023-03-30T15:28:19.641Z,55.70
2023-03-30T15:30:53.039Z,55.60
2023-03-30T15:33:44.903Z,55.90
2023-03-30T15:36:24.563Z,55.80
2023-03-30T15:38:54.873Z,56.60
2023-03-30T15:41:24.706Z,58.10
2023-03-30T15:43:59.382Z,59.20
2023-03-30T15:46:28.264Z,60.50
2023-03-30T15:48:57.791Z,60.80
2023-03-30T15:51:44.390Z,60.80
2023-03-30T15:54:39.714Z,61.00
2023-03-30T15:57:13.887Z,61.30
2023-03-30T15:59:46.798Z,61.90
2023-03-30T16:02:21.605Z,59.90
2023-03-30T16:04:52.064Z,58.50
2023-03-30T16:07:21.479Z,57.20
2023-03-30T16:09:48.965Z,57.50
2023-03-30T16:12:19.240Z,56.70
2023-03-30T16:14:48.181Z,56.90
2023-03-30T16:17:16.104Z,57.10
2023-03-30T16:19:43.989Z,57.20
2023-03-30T16:22:12.616Z,56.80
2023-03-30T16:24:40.929Z,55.80
2023-03-30T16:27:10.309Z,54.10
2023-03-30T16:29:37.235Z,53.50
2023-03-30T16:32:04.502Z,53.50
2023-03-30T16:34:31.716Z,53.50
2023-03-30T16:41:31.282Z,53.70
2023-03-30T16:44:20.907Z,54.50
2023-03-30T16:49:51.712Z,55.70
2023-03-30T16:52:21.037Z,56.20
2023-03-30T16:54:48.118Z,56.40
2023-03-30T16:57:15.227Z,56.70
2023-03-30T16:59:42.595Z,57.00
2023-03-30T17:02:15.492Z,57.20
2023-03-30T17:04:45.538Z,57.10
2023-03-30T17:07:12.689Z,57.30
2023-03-30T17:09:39.659Z,57.40
2023-03-30T17:12:06.706Z,57.50
2023-03-30T17:14:33.702Z,59.10
2023-03-30T17:17:00.777Z,60.70
2023-03-30T17:19:28.106Z,62.00
2023-03-30T17:21:55.080Z,61.80
2023-03-30T17:24:21.993Z,62.30
2023-03-30T17:26:49.693Z,63.40
2023-03-30T17:29:16.788Z,62.80
2023-03-30T17:31:46.056Z,63.60
2023-03-30T17:34:13.413Z,62.60
2023-03-30T17:36:40.442Z,62.20
2023-03-30T17:39:10.395Z,61.80
2023-03-30T17:41:38.274Z,61.30
2023-03-30T17:44:05.283Z,60.70
2023-03-30T17:46:32.822Z,60.20
2023-03-30T17:49:00.704Z,59.80
2023-03-30T17:51:27.627Z,59.30
2023-03-30T17:53:54.632Z,58.90
2023-03-30T17:56:21.640Z,58.60
2023-03-30T17:58:49.599Z,58.40
2023-03-30T18:01:17.050Z,58.10
2023-03-30T18:03:45.334Z,58.00
2023-03-30T18:06:16.159Z,57.80
2023-03-30T18:08:44.093Z,57.70
2023-03-30T18:11:11.413Z,57.80
2023-03-30T18:13:38.685Z,57.90
2023-03-30T18:16:08.721Z,57.80
2023-03-30T18:18:35.642Z,57.60
2023-03-30T18:21:04.620Z,57.20
2023-03-30T18:23:34.230Z,57.00
2023-03-30T18:26:02.323Z,56.80
2023-03-30T18:28:31.457Z,56.60
2023-03-30T18:31:00.987Z,56.40
2023-03-30T18:33:28.578Z,56.30
2023-03-30T18:36:05.138Z,56.00
2023-03-30T18:38:33.295Z,55.80
2023-03-30T18:41:01.558Z,55.60
2023-03-30T18:43:28.966Z,55.60
2023-03-30T18:46:01.070Z,55.60
2023-03-30T18:48:30.529Z,55.50
2023-03-30T18:50:58.016Z,55.60
2023-03-30T18:53:33.193Z,55.70
2023-03-30T18:56:05.017Z,55.90
2023-03-30T18:58:34.003Z,55.90
2023-03-30T19:01:01.687Z,55.70
2023-03-30T19:03:30.134Z,55.50
2023-03-30T19:05:57.385Z,55.50
2023-03-30T19:08:25.514Z,55.10
2023-03-30T19:10:58.440Z,54.80
2023-03-30T19:13:26.812Z,55.10
2023-03-30T19:15:54.599Z,56.00
2023-03-30T19:18:21.920Z,55.90
2023-03-30T19:20:51.014Z,56.60
2023-03-30T19:23:19.695Z,57.00
2023-03-30T19:25:46.953Z,56.90
2023-03-30T19:28:15.315Z,57.10
2023-03-30T19:30:43.076Z,57.20
2023-03-30T19:33:15.283Z,57.20
2023-03-30T19:35:44.021Z,57.60
2023-03-30T19:38:11.417Z,56.90
2023-03-30T19:40:39.292Z,56.80
2023-03-30T19:43:07.583Z,56.80
2023-03-30T19:45:34.634Z,56.80
2023-03-30T19:48:01.817Z,56.90
2023-03-30T19:50:30.417Z,57.00
2023-03-30T19:52:58.691Z,57.70
2023-03-30T19:55:26.429Z,57.20
2023-03-30T19:57:53.525Z,57.50
2023-03-30T20:00:21.355Z,58.20
2023-03-30T20:02:51.417Z,58.40
2023-03-30T20:05:19.714Z,58.10
2023-03-30T20:07:47.370Z,57.90
2023-03-30T20:10:21.912Z,58.50
2023-03-30T20:12:50.628Z,58.80
2023-03-30T20:15:21.301Z,59.20
2023-03-30T20:17:48.925Z,59.50
2023-03-30T20:20:22.922Z,59.50
2023-03-30T20:22:53.497Z,59.20
2023-03-30T20:25:21.869Z,59.20
2023-03-30T20:28:07.347Z,58.90
2023-03-30T20:30:37.298Z,58.30
2023-03-30T20:33:08.197Z,58.10
2023-03-30T20:35:37.298Z,57.50
2023-03-30T20:38:06.190Z,57.00
2023-03-30T20:40:33.209Z,56.40
2023-03-30T20:43:03.344Z,56.30
2023-03-30T20:45:31.256Z,56.10
2023-03-30T20:48:01.526Z,56.10
2023-03-30T20:50:28.526Z,55.80
2023-03-30T20:52:55.969Z,55.50
2023-03-30T20:55:22.990Z,55.40
2023-03-30T20:57:49.903Z,55.30
2023-03-30T21:00:17.360Z,55.40
2023-03-30T21:02:44.421Z,55.30
2023-03-30T21:05:11.399Z,55.20
2023-03-30T21:07:42.249Z,55.10
2023-03-30T21:10:10.030Z,55.40
2023-03-30T21:12:37.161Z,55.40
2023-03-30T21:15:05.074Z,55.00
2023-03-30T21:17:32.203Z,54.80
2023-03-30T21:19:59.354Z,54.70
2023-03-30T21:22:26.813Z,54.50
2023-03-30T21:24:53.851Z,55.00
2023-03-30T21:27:25.118Z,54.30
2023-03-30T21:29:52.214Z,54.30
2023-03-30T21:32:22.167Z,54.10
2023-03-30T21:34:49.269Z,54.10
2023-03-30T21:37:19.275Z,54.10
2023-03-30T21:39:46.593Z,54.10
2023-03-30T21:42:13.845Z,54.20
2023-03-30T21:44:43.260Z,54.40
2023-03-30T21:47:10.381Z,54.40
2023-03-30T21:49:37.449Z,54.40
2023-03-30T21:52:04.565Z,54.40
2023-03-30T21:54:31.552Z,54.40
2023-03-30T21:56:58.641Z,54.60
2023-03-30T21:59:25.790Z,54.70
2023-03-30T22:01:52.833Z,54.60
2023-03-30T22:04:19.822Z,54.50
2023-03-30T22:06:47.746Z,54.40
2023-03-30T22:09:14.893Z,54.50
2023-03-30T22:11:46.577Z,54.40
2023-03-30T22:14:13.604Z,54.30
2023-03-30T22:16:41.072Z,54.40
2023-03-30T22:19:08.291Z,54.40
2023-03-30T22:21:35.622Z,54.30
2023-03-30T22:24:04.809Z,54.40
2023-03-30T22:26:31.994Z,54.50
2023-03-30T22:28:59.073Z,54.50
2023-03-30T22:31:27.818Z,54.60
2023-03-30T22:33:56.478Z,54.50
2023-03-30T22:36:26.737Z,54.50
2023-03-30T22:38:56.009Z,54.50
2023-03-30T22:41:26.696Z,54.60
2023-03-30T22:43:56.851Z,54.70
2023-03-30T22:46:25.686Z,54.70
2023-03-30T22:48:55.443Z,54.70
2023-03-30T22:51:29.128Z,54.80
2023-03-30T22:54:00.185Z,54.70
2023-03-30T22:56:29.102Z,54.70
2023-03-30T22:58:57.697Z,54.70
2023-03-30T23:01:24.999Z,54.80
2023-03-30T23:03:53.479Z,54.70
2023-03-30T23:06:20.767Z,54.80
2023-03-30T23:08:48.782Z,54.80
2023-03-30T23:11:16.559Z,54.70
2023-03-30T23:13:43.674Z,54.70
2023-03-30T23:16:10.992Z,54.70
2023-03-30T23:18:38.376Z,54.50
2023-03-30T23:21:07.219Z,54.40
2023-03-30T23:23:36.459Z,54.40
2023-03-30T23:26:09.174Z,54.50
2023-03-30T23:28:41.942Z,54.50
2023-03-30T23:31:14.868Z,54.50
2023-03-30T23:33:42.217Z,55.00
2023-03-30T23:36:10.293Z,54.50
2023-03-30T23:38:37.747Z,54.60
2023-03-30T23:41:04.907Z,54.60
2023-03-30T23:43:32.450Z,54.50
2023-03-30T23:45:59.518Z,54.50
2023-03-30T23:48:27.089Z,54.40
2023-03-30T23:50:53.980Z,54.40
2023-03-30T23:53:20.967Z,54.20
2023-03-30T23:55:50.205Z,54.20
2023-03-30T23:58:18.289Z,54.10
